Latest Coastal Weather Observations for St Lawrence

IDQ60701

Issued at 12:21 pm EST Thursday 19 January 2017 (issued every 10 minutes, with the page automatically refreshed every 10 minutes)

About coastal observations | Map of coastal stations | Coastal observations for QLD | Marine services | Other Formats
Station Details ID: 033210 Name: ST LAWRENCE Lat: -22.35 Lon: 149.52 Height: 9.19 m
Data from the previous 72 hours. | See also: Recent months at St Lawrence
Date/Time
EST
Temp
°C
Wind Pressure Rain since
9am
mm
Weather Cloud Vis
km
Sea
Height
m
Swell
Dir  Spd
kts
Gust
kts
hPa Trend Height
m
Period
s
Dir
19/12:00pm 33.1 NNE 7 11 1009.2 - 0.0 - - - - - - -
19/11:30am 32.8 NE 8 12 1009.6 - 0.0 - - - - - - -
19/11:00am 32.6 N 3 5 1009.9 - 0.0 - - - - - - -
19/10:30am 31.8 NNW 6 10 1009.8 - 0.0 - - - - - - -
19/10:00am 31.3 N 6 8 1010.3 - 0.0 - - - - - - -
19/09:30am 30.2 N 5 9 1010.9 - 0.0 - - - - - - -
19/09:00am 29.8 NW 7 11 1010.7 - 0.0 - - - - - - -
19/08:30am 29.0 NNW 7 11 1011.1 - 0.0 - - - - - - -
19/08:00am 27.8 WNW 2 4 1011.4 - 0.0 - - - - - - -
19/07:30am 26.8 CALM 0 3 1011.4 - 0.0 - - - - - - -
19/07:00am 25.1 W 4 5 1011.3 - 0.0 - - - - - - -
19/06:30am 23.9 CALM 0 0 1010.9 - 0.0 - - - - - - -
19/06:00am 23.1 W 3 4 1010.4 - 0.0 - - - - - - -
19/05:30am 23.1 W 1 4 1010.2 - 0.0 - - - - - - -
19/05:00am 23.1 W 3 4 1010.1 - 0.0 - - - - - - -
19/04:30am 23.3 W 2 4 1009.8 - 0.0 - - - - - - -
19/04:00am 23.6 WSW 3 4 1009.6 - 0.0 - - - - - - -
19/03:30am 23.6 CALM 0 0 1009.6 - 0.0 - - - - - - -
19/03:00am 23.9 S 1 3 1009.6 - 0.0 - - - - - - -
19/02:30am 24.2 CALM 0 0 1009.7 - 0.0 - - - - - - -
19/02:00am 24.3 S 1 3 1010.0 - 0.0 - - - - - - -
19/01:30am 24.4 WSW 1 3 1010.2 - 0.0 - - - - - - -
19/01:00am 24.6 CALM 0 0 1010.3 - 0.0 - - - - - - -
19/12:30am 24.8 CALM 0 0 1010.5 - 0.0 - - - - - - -
19/12:00am 25.2 CALM 0 0 1010.8 - 0.0 - - - - - - -
 
Date/Time
EST
Temp
°C
Wind Pressure Rain since
9am
mm
Weather Cloud Vis
km
Sea
Height
m
Swell
Dir  Spd
kts
Gust
kts
hPa Trend Height
m
Period
s
Dir
18/11:30pm 25.4 WNW 4 5 1011.1 - 0.0 - - - - - - -
18/11:00pm 25.9 NW 1 3 1011.4 - 0.0 - - - - - - -
18/10:30pm 27.0 NNE 6 8 1011.5 - 0.0 - - - - - - -
18/10:00pm 27.1 NNE 5 7 1011.4 - 0.0 - - - - - - -
18/09:30pm 27.3 NNE 5 8 1011.4 - 0.0 - - - - - - -
18/09:00pm 27.4 NE 5 7 1011.4 - 0.0 - - - - - - -
18/08:30pm 27.6 NE 6 9 1011.2 - 0.0 - - - - - - -
18/08:00pm 27.8 NNE 7 9 1010.9 - 0.0 - - - - - - -
18/07:30pm 28.0 NNE 9 12 1010.6 - 0.0 - - - - - - -
18/07:00pm 28.3 NNE 10 13 1010.3 - 0.0 - - - - - - -
18/06:30pm 28.7 NNE 10 14 1010.2 - 0.0 - - - - - - -
18/06:00pm 29.5 NNE 10 14 1010.1 - 0.0 - - - - - - -
18/05:30pm 29.9 NE 10 14 1009.7 - 0.0 - - - - - - -
18/05:00pm 30.7 NE 11 15 1009.5 - 0.0 - - - - - - -
18/04:30pm 31.5 NE 9 13 1009.6 - 0.0 - - - - - - -
18/04:00pm 32.0 NE 9 11 1009.8 - 0.0 - - - - - - -
18/03:30pm 31.8 NE 9 12 1010.1 - 0.0 - - - - - - -
18/03:00pm 32.1 NNE 9 12 1010.3 - 0.0 - - - - - - -
18/02:30pm 32.7 NNE 8 11 1010.7 - 0.0 - - - - - - -
18/02:00pm 32.2 NNE 8 12 1011.1 - 0.0 - - - - - - -
18/01:30pm 32.1 NNE 8 13 1011.6 - 0.0 - - - - - - -
18/01:00pm 32.3 NNE 6 9 1011.9 - 0.0 - - - - - - -
18/12:30pm 31.8 NNE 5 11 1012.3 - 0.0 - - - - - - -
18/12:00pm 31.4 NNE 5 8 1012.7 - 0.0 - - - - - - -
18/11:30am 31.4 NNE 6 11 1013.0 - 0.0 - - - - - - -
18/11:00am 30.8 NE 7 11 1013.5 - 0.0 - - - - - - -
18/10:30am 29.9 NE 5 8 1013.8 - 0.0 - - - - - - -
18/10:00am 29.9 NNE 5 7 1014.1 - 0.0 - - - - - - -
18/09:30am 29.7 E 1 5 1014.4 - 0.0 - - - - - - -
18/09:00am 29.8 E 3 6 1014.6 - 0.0 - - - - - - -
18/08:30am 28.1 SSE 3 5 1014.6 - 0.0 - - - - - - -
18/08:00am 27.4 S 3 7 1014.6 - 0.0 - - - - - - -
18/07:30am 26.4 SSE 5 7 1014.5 - 0.0 - - - - - - -
18/07:00am 25.0 S 4 6 1014.4 - 0.0 - - - - - - -
18/06:30am 23.6 S 2 5 1014.0 - 0.0 - - - - - - -
18/06:00am 21.9 CALM 0 3 1013.8 - 0.0 - - - - - - -
18/05:30am 21.6 S 1 4 1013.3 - 0.0 - - - - - - -
18/05:00am 21.5 CALM 0 0 1012.9 - 0.0 - - - - - - -
18/04:30am 21.5 SW 3 4 1012.5 - 0.0 - - - - - - -
18/04:00am 21.6 SSW 2 4 1012.3 - 0.0 - - - - - - -
18/03:30am 21.7 CALM 0 0 1012.3 - 0.0 - - - - - - -
18/03:00am 22.0 SSW 2 4 1012.4 - 0.0 - - - - - - -
18/02:30am 22.1 S 2 3 1012.6 - 0.0 - - - - - - -
18/02:00am 23.0 SSE 3 4 1012.9 - 0.0 - - - - - - -
18/01:30am 22.9 S 1 4 1013.3 - 0.0 - - - - - - -
18/01:00am 22.6 CALM 0 0 1013.6 - 0.0 - - - - - - -
18/12:30am 23.1 CALM 0 0 1013.8 - 0.0 - - - - - - -
18/12:00am 24.0 ESE 1 3 1014.1 - 0.0 - - - - - - -
 
Date/Time
EST
Temp
°C
Wind Pressure Rain since
9am
mm
Weather Cloud Vis
km
Sea
Height
m
Swell
Dir  Spd
kts
Gust
kts
hPa Trend Height
m
Period
s
Dir
17/11:30pm 24.5 ESE 1 4 1014.4 - 0.0 - - - - - - -
17/11:00pm 24.9 E 3 4 1014.6 - 0.0 - - - - - - -
17/10:30pm 25.5 E 3 5 1014.8 - 0.0 - - - - - - -
17/10:00pm 25.7 E 3 4 1014.9 - 0.0 - - - - - - -
17/09:30pm 26.3 NE 5 7 1014.7 - 0.0 - - - - - - -
17/09:00pm 26.6 NE 5 6 1014.5 - 0.0 - - - - - - -
17/08:30pm 27.1 NE 6 8 1014.2 - 0.0 - - - - - - -
17/08:00pm 27.4 NNE 6 8 1013.9 - 0.0 - - - - - - -
17/07:30pm 27.8 NNE 8 12 1013.7 - 0.0 - - - - - - -
17/07:00pm 28.3 NNE 9 13 1013.5 - 0.0 - - - - - - -
17/06:30pm 28.8 NNE 10 13 1013.2 - 0.0 - - - - - - -
17/06:00pm 29.4 NNE 9 12 1012.9 - 0.0 - - - - - - -
17/05:30pm 29.4 NNE 11 15 1012.5 - 0.0 - - - - - - -
17/05:00pm 29.4 NNE 10 13 1012.2 - 0.0 - - - - - - -
17/04:30pm 29.7 NNE 10 15 1012.1 - 0.0 - - - - - - -
17/04:00pm 30.2 NNE 11 16 1012.2 - 0.0 - - - - - - -
17/03:30pm 30.8 NNE 11 15 1012.3 - 0.0 - - - - - - -
17/03:00pm 31.1 NNE 11 15 1012.3 - 0.0 - - - - - - -
17/02:30pm 31.7 NNE 8 11 1012.5 - 0.0 - - - - - - -
17/02:00pm 31.0 NNE 7 9 1012.9 - 0.0 - - - - - - -
17/01:30pm 30.3 NNE 7 9 1013.5 - 0.0 - - - - - - -
17/01:00pm 30.3 ESE 5 8 1014.0 - 0.0 - - - - - - -
17/12:30pm 29.7 ENE 7 11 1014.4 - 0.0 - - - - - - -
17/12:00pm 28.6 ENE 8 12 1014.8 - 0.0 - - - - - - -
17/11:30am 29.9 ENE 8 12 1014.8 - 0.0 - - - - - - -
17/11:00am 29.9 ENE 8 13 1014.8 - 0.0 - - - - - - -
17/10:30am 29.7 E 7 10 1014.9 - 0.0 - - - - - - -
17/10:00am 30.2 ENE 7 10 1015.0 - 0.0 - - - - - - -
17/09:30am 28.9 E 5 8 1015.0 - 0.0 - - - - - - -
17/09:00am 28.5 ENE 5 8 1015.0 - 0.0 - - - - - - -
17/08:30am 28.7 ESE 6 11 1015.0 - 0.0 - - - - - - -
17/08:00am 27.8 SSE 6 9 1014.9 - 0.0 - - - - - - -
17/07:30am 26.8 S 6 9 1014.8 - 0.0 - - - - - - -
17/07:00am 25.9 S 6 9 1014.6 - 0.0 - - - - - - -
17/06:30am 25.1 SSE 5 7 1014.3 - 0.0 - - - - - - -
17/06:00am 23.8 SSE 5 7 1014.1 - 0.0 - - - - - - -
17/05:30am 23.9 SSE 6 8 1013.8 - 0.0 - - - - - - -
17/05:00am 23.7 S 5 7 1013.3 - 0.0 - - - - - - -
17/04:30am 23.8 SSE 5 7 1013.0 - 0.0 - - - - - - -
17/04:00am 23.7 SSE 5 6 1012.6 - 0.0 - - - - - - -
17/03:30am 23.9 S 5 7 1012.5 - 0.0 - - - - - - -
17/03:00am 23.9 S 5 7 1012.4 - 0.0 - - - - - - -
17/02:30am 24.1 SSE 5 7 1012.6 - 0.0 - - - - - - -
17/02:00am 24.5 SSE 4 6 1012.7 - 0.0 - - - - - - -
17/01:30am 24.9 SSE 4 6 1012.9 - 0.0 - - - - - - -
17/01:00am 25.3 SSE 3 5 1013.1 - 0.0 - - - - - - -
17/12:30am 26.5 E 6 10 1013.2 - 0.0 - - - - - - -
17/12:00am 26.5 E 5 7 1013.4 - 0.0 - - - - - - -
 
Date/Time
EST
Temp
°C
Wind Pressure Rain since
9am
mm
Weather Cloud Vis
km
Sea
Height
m
Swell
Dir  Spd
kts
Gust
kts
hPa Trend Height
m
Period
s
Dir
16/11:30pm 26.5 E 4 7 1013.5 - 0.0 - - - - - - -
16/11:00pm 26.7 E 5 8 1013.7 - 0.0 - - - - - - -
16/10:30pm 26.9 ENE 5 9 1013.7 - 0.0 - - - - - - -
16/10:00pm 27.0 ENE 5 9 1013.6 - 0.0 - - - - - - -
16/09:30pm 27.2 ENE 5 8 1013.5 - 0.0 - - - - - - -
16/09:00pm 27.4 ENE 7 11 1013.2 - 0.0 - - - - - - -
16/08:30pm 27.7 ENE 8 12 1012.7 - 0.0 - - - - - - -
16/08:00pm 27.9 ENE 6 9 1012.5 - 0.0 - - - - - - -
16/07:30pm 27.9 ENE 8 12 1012.4 - 0.0 - - - - - - -
16/07:00pm 28.1 NE 9 13 1012.1 - 0.0 - - - - - - -
16/06:30pm 28.5 ENE 7 12 1011.6 - 0.0 - - - - - - -
16/06:00pm 29.2 ENE 9 15 1011.3 - 0.0 - - - - - - -
16/05:30pm 29.7 NE 9 13 1010.9 - 0.0 - - - - - - -
16/05:00pm 29.9 NE 9 12 1010.5 - 0.0 - - - - - - -
16/04:30pm 30.0 ENE 10 15 1010.2 - 0.0 - - - - - - -
16/04:00pm 31.0 NE 10 15 1010.0 - 0.0 - - - - - - -
16/03:30pm 31.4 NE 10 15 1010.2 - 0.0 - - - - - - -
16/03:00pm 29.9 ENE 9 13 1010.2 - 0.0 - - - - - - -
16/02:30pm 30.4 NE 11 17 1010.3 - 0.0 - - - - - - -
16/02:00pm 31.1 NE 10 13 1010.3 - 0.0 - - - - - - -
16/01:30pm 30.6 NE 10 14 1010.4 - 0.0 - - - - - - -
16/01:00pm 30.3 NE 10 15 1010.4 - 0.0 - - - - - - -
16/12:30pm 30.0 NE 9 12 1010.3 - 0.0 - - - - - - -

Other Formats:

Comma delimited format used in spreadsheet applications
http://www.bom.gov.au/fwo/IDQ60701/IDQ60701.95369.axf

JavaScript Object Notation format (JSON) in row-major order
http://www.bom.gov.au/fwo/IDQ60701/IDQ60701.95369.json